sensor_id;sensor_type;location;lat;lon;timestamp;P1;durP1;ratioP1;P2;durP2;ratioP2
2041;SDS011;1026;51.460;7.252;2023-05-07T00:00:42;2.00;;;1.90;;
2041;SDS011;1026;51.460;7.252;2023-05-07T00:03:15;2.20;;;2.00;;
2041;SDS011;1026;51.460;7.252;2023-05-07T00:05:40;2.37;;;2.20;;
2041;SDS011;1026;51.460;7.252;2023-05-07T00:08:06;2.37;;;2.17;;
2041;SDS011;1026;51.460;7.252;2023-05-07T00:10:32;2.53;;;2.33;;
2041;SDS011;1026;51.460;7.252;2023-05-07T00:12:58;1.93;;;1.83;;
2041;SDS011;1026;51.460;7.252;2023-05-07T00:15:24;2.97;;;2.10;;
2041;SDS011;1026;51.460;7.252;2023-05-07T00:17:49;1.87;;;1.77;;
2041;SDS011;1026;51.460;7.252;2023-05-07T00:20:15;2.27;;;2.17;;
2041;SDS011;1026;51.460;7.252;2023-05-07T00:22:41;2.63;;;1.90;;
2041;SDS011;1026;51.460;7.252;2023-05-07T00:25:07;2.10;;;2.00;;
2041;SDS011;1026;51.460;7.252;2023-05-07T00:27:32;2.00;;;1.87;;
2041;SDS011;1026;51.460;7.252;2023-05-07T00:29:58;4.83;;;2.70;;
2041;SDS011;1026;51.460;7.252;2023-05-07T00:32:24;2.43;;;2.23;;
2041;SDS011;1026;51.460;7.252;2023-05-07T00:34:50;2.50;;;2.30;;
2041;SDS011;1026;51.460;7.252;2023-05-07T00:37:16;2.27;;;2.10;;
2041;SDS011;1026;51.460;7.252;2023-05-07T00:39:41;2.00;;;1.90;;
2041;SDS011;1026;51.460;7.252;2023-05-07T00:42:07;2.40;;;2.20;;
2041;SDS011;1026;51.460;7.252;2023-05-07T00:44:33;2.77;;;1.87;;
2041;SDS011;1026;51.460;7.252;2023-05-07T00:47:03;2.73;;;2.40;;
2041;SDS011;1026;51.460;7.252;2023-05-07T00:49:35;2.70;;;2.37;;
2041;SDS011;1026;51.460;7.252;2023-05-07T00:52:04;1.90;;;1.80;;
2041;SDS011;1026;51.460;7.252;2023-05-07T00:54:31;2.57;;;2.37;;
2041;SDS011;1026;51.460;7.252;2023-05-07T00:56:57;2.33;;;2.23;;
2041;SDS011;1026;51.460;7.252;2023-05-07T00:59:23;2.27;;;2.17;;
2041;SDS011;1026;51.460;7.252;2023-05-07T01:01:48;2.50;;;2.30;;
2041;SDS011;1026;51.460;7.252;2023-05-07T01:04:14;3.17;;;2.43;;
2041;SDS011;1026;51.460;7.252;2023-05-07T01:06:40;2.30;;;2.20;;
2041;SDS011;1026;51.460;7.252;2023-05-07T01:09:06;2.27;;;2.07;;
2041;SDS011;1026;51.460;7.252;2023-05-07T01:11:32;3.33;;;3.03;;
2041;SDS011;1026;51.460;7.252;2023-05-07T01:13:58;2.50;;;2.30;;
2041;SDS011;1026;51.460;7.252;2023-05-07T01:16:25;2.53;;;2.33;;
2041;SDS011;1026;51.460;7.252;2023-05-07T01:18:51;2.33;;;2.13;;
2041;SDS011;1026;51.460;7.252;2023-05-07T01:21:17;1.90;;;1.80;;
2041;SDS011;1026;51.460;7.252;2023-05-07T01:23:47;2.57;;;2.37;;
2041;SDS011;1026;51.460;7.252;2023-05-07T01:26:13;4.30;;;2.20;;
2041;SDS011;1026;51.460;7.252;2023-05-07T01:28:38;2.60;;;2.40;;
2041;SDS011;1026;51.460;7.252;2023-05-07T01:31:04;2.53;;;2.07;;
2041;SDS011;1026;51.460;7.252;2023-05-07T01:33:32;4.53;;;2.80;;
2041;SDS011;1026;51.460;7.252;2023-05-07T01:36:00;2.20;;;2.10;;
2041;SDS011;1026;51.460;7.252;2023-05-07T01:38:28;2.63;;;2.43;;
2041;SDS011;1026;51.460;7.252;2023-05-07T01:40:55;2.27;;;2.17;;
2041;SDS011;1026;51.460;7.252;2023-05-07T01:43:21;2.40;;;2.20;;
2041;SDS011;1026;51.460;7.252;2023-05-07T01:45:47;3.57;;;2.20;;
2041;SDS011;1026;51.460;7.252;2023-05-07T01:48:14;2.43;;;2.23;;
2041;SDS011;1026;51.460;7.252;2023-05-07T01:50:43;2.87;;;2.47;;
2041;SDS011;1026;51.460;7.252;2023-05-07T01:53:09;2.80;;;2.60;;
2041;SDS011;1026;51.460;7.252;2023-05-07T01:55:35;2.40;;;2.20;;
2041;SDS011;1026;51.460;7.252;2023-05-07T01:58:02;2.80;;;2.60;;
2041;SDS011;1026;51.460;7.252;2023-05-07T02:00:28;3.13;;;2.83;;
2041;SDS011;1026;51.460;7.252;2023-05-07T02:02:54;2.30;;;2.10;;
2041;SDS011;1026;51.460;7.252;2023-05-07T02:05:19;2.07;;;1.97;;
2041;SDS011;1026;51.460;7.252;2023-05-07T02:07:45;2.33;;;2.13;;
2041;SDS011;1026;51.460;7.252;2023-05-07T02:10:11;2.83;;;2.63;;
2041;SDS011;1026;51.460;7.252;2023-05-07T02:12:37;2.70;;;2.50;;
2041;SDS011;1026;51.460;7.252;2023-05-07T02:15:02;4.63;;;2.80;;
2041;SDS011;1026;51.460;7.252;2023-05-07T02:17:35;2.53;;;2.33;;
2041;SDS011;1026;51.460;7.252;2023-05-07T02:20:04;2.30;;;2.20;;
2041;SDS011;1026;51.460;7.252;2023-05-07T02:22:30;2.53;;;2.33;;
2041;SDS011;1026;51.460;7.252;2023-05-07T02:24:55;3.63;;;3.40;;
2041;SDS011;1026;51.460;7.252;2023-05-07T02:27:21;2.30;;;2.10;;
2041;SDS011;1026;51.460;7.252;2023-05-07T02:29:47;2.63;;;2.43;;
2041;SDS011;1026;51.460;7.252;2023-05-07T02:32:12;3.00;;;2.80;;
2041;SDS011;1026;51.460;7.252;2023-05-07T02:34:38;2.97;;;2.77;;
2041;SDS011;1026;51.460;7.252;2023-05-07T02:37:04;3.60;;;2.93;;
2041;SDS011;1026;51.460;7.252;2023-05-07T02:39:30;3.20;;;2.60;;
2041;SDS011;1026;51.460;7.252;2023-05-07T02:41:55;2.47;;;2.20;;
2041;SDS011;1026;51.460;7.252;2023-05-07T02:44:21;2.60;;;2.40;;
2041;SDS011;1026;51.460;7.252;2023-05-07T02:46:47;4.67;;;2.17;;
2041;SDS011;1026;51.460;7.252;2023-05-07T02:49:12;2.83;;;2.63;;
2041;SDS011;1026;51.460;7.252;2023-05-07T02:51:38;2.47;;;2.27;;
2041;SDS011;1026;51.460;7.252;2023-05-07T02:54:03;2.97;;;2.77;;
2041;SDS011;1026;51.460;7.252;2023-05-07T02:56:29;3.70;;;3.40;;
2041;SDS011;1026;51.460;7.252;2023-05-07T02:58:55;2.53;;;2.33;;
2041;SDS011;1026;51.460;7.252;2023-05-07T03:01:21;2.70;;;2.50;;
2041;SDS011;1026;51.460;7.252;2023-05-07T03:03:46;2.63;;;2.43;;
2041;SDS011;1026;51.460;7.252;2023-05-07T03:06:12;4.60;;;2.70;;
2041;SDS011;1026;51.460;7.252;2023-05-07T03:08:38;2.57;;;2.33;;
2041;SDS011;1026;51.460;7.252;2023-05-07T03:11:13;2.53;;;2.33;;
2041;SDS011;1026;51.460;7.252;2023-05-07T03:13:39;2.77;;;2.40;;
2041;SDS011;1026;51.460;7.252;2023-05-07T03:16:08;2.90;;;2.70;;
2041;SDS011;1026;51.460;7.252;2023-05-07T03:18:33;2.57;;;2.37;;
2041;SDS011;1026;51.460;7.252;2023-05-07T03:20:59;2.80;;;2.60;;
2041;SDS011;1026;51.460;7.252;2023-05-07T03:23:25;3.87;;;3.47;;
2041;SDS011;1026;51.460;7.252;2023-05-07T03:25:50;2.37;;;2.27;;
2041;SDS011;1026;51.460;7.252;2023-05-07T03:28:16;2.73;;;2.53;;
2041;SDS011;1026;51.460;7.252;2023-05-07T03:30:42;3.27;;;3.00;;
2041;SDS011;1026;51.460;7.252;2023-05-07T03:33:07;4.53;;;3.20;;
2041;SDS011;1026;51.460;7.252;2023-05-07T03:35:33;3.27;;;2.97;;
2041;SDS011;1026;51.460;7.252;2023-05-07T03:37:58;3.00;;;2.70;;
2041;SDS011;1026;51.460;7.252;2023-05-07T03:40:24;3.10;;;2.83;;
2041;SDS011;1026;51.460;7.252;2023-05-07T03:42:50;3.53;;;3.23;;
2041;SDS011;1026;51.460;7.252;2023-05-07T03:45:15;3.43;;;3.23;;
2041;SDS011;1026;51.460;7.252;2023-05-07T03:47:41;3.43;;;3.13;;
2041;SDS011;1026;51.460;7.252;2023-05-07T03:50:07;3.43;;;3.13;;
2041;SDS011;1026;51.460;7.252;2023-05-07T03:52:33;3.00;;;2.80;;
2041;SDS011;1026;51.460;7.252;2023-05-07T03:54:59;2.87;;;2.67;;
2041;SDS011;1026;51.460;7.252;2023-05-07T03:57:25;3.00;;;2.80;;
2041;SDS011;1026;51.460;7.252;2023-05-07T03:59:51;2.60;;;2.40;;
2041;SDS011;1026;51.460;7.252;2023-05-07T04:02:17;3.97;;;2.50;;
2041;SDS011;1026;51.460;7.252;2023-05-07T04:04:42;3.10;;;2.87;;
2041;SDS011;1026;51.460;7.252;2023-05-07T04:07:08;3.17;;;2.97;;
2041;SDS011;1026;51.460;7.252;2023-05-07T04:09:34;2.93;;;2.73;;
2041;SDS011;1026;51.460;7.252;2023-05-07T04:12:12;3.60;;;3.30;;
2041;SDS011;1026;51.460;7.252;2023-05-07T04:14:38;3.47;;;3.27;;
2041;SDS011;1026;51.460;7.252;2023-05-07T04:17:03;3.30;;;3.00;;
2041;SDS011;1026;51.460;7.252;2023-05-07T04:19:30;3.37;;;3.07;;
2041;SDS011;1026;51.460;7.252;2023-05-07T04:21:58;3.30;;;3.00;;
2041;SDS011;1026;51.460;7.252;2023-05-07T04:24:24;4.10;;;3.80;;
2041;SDS011;1026;51.460;7.252;2023-05-07T04:26:50;5.33;;;3.40;;
2041;SDS011;1026;51.460;7.252;2023-05-07T04:29:16;3.33;;;3.03;;
2041;SDS011;1026;51.460;7.252;2023-05-07T04:31:42;4.40;;;4.10;;
2041;SDS011;1026;51.460;7.252;2023-05-07T04:34:09;3.70;;;3.20;;
2041;SDS011;1026;51.460;7.252;2023-05-07T04:36:36;3.40;;;3.10;;
2041;SDS011;1026;51.460;7.252;2023-05-07T04:39:03;4.00;;;2.77;;
2041;SDS011;1026;51.460;7.252;2023-05-07T04:41:29;3.63;;;3.33;;
2041;SDS011;1026;51.460;7.252;2023-05-07T04:43:55;3.43;;;3.20;;
2041;SDS011;1026;51.460;7.252;2023-05-07T04:46:31;3.90;;;3.50;;
2041;SDS011;1026;51.460;7.252;2023-05-07T04:48:56;4.00;;;3.70;;
2041;SDS011;1026;51.460;7.252;2023-05-07T04:51:22;3.77;;;3.47;;
2041;SDS011;1026;51.460;7.252;2023-05-07T04:53:48;4.37;;;4.00;;
2041;SDS011;1026;51.460;7.252;2023-05-07T04:56:14;3.50;;;3.20;;
2041;SDS011;1026;51.460;7.252;2023-05-07T04:58:39;4.47;;;3.83;;
2041;SDS011;1026;51.460;7.252;2023-05-07T05:01:05;4.27;;;3.90;;
2041;SDS011;1026;51.460;7.252;2023-05-07T05:03:31;3.73;;;3.40;;
2041;SDS011;1026;51.460;7.252;2023-05-07T05:05:56;4.40;;;4.00;;
2041;SDS011;1026;51.460;7.252;2023-05-07T05:08:24;4.17;;;3.80;;
2041;SDS011;1026;51.460;7.252;2023-05-07T05:10:50;3.67;;;3.37;;
2041;SDS011;1026;51.460;7.252;2023-05-07T05:13:15;3.93;;;3.57;;
2041;SDS011;1026;51.460;7.252;2023-05-07T05:15:41;6.40;;;4.40;;
2041;SDS011;1026;51.460;7.252;2023-05-07T05:18:07;3.77;;;3.47;;
2041;SDS011;1026;51.460;7.252;2023-05-07T05:20:32;3.80;;;3.50;;
2041;SDS011;1026;51.460;7.252;2023-05-07T05:22:58;3.87;;;3.47;;
2041;SDS011;1026;51.460;7.252;2023-05-07T05:25:24;5.03;;;3.83;;
2041;SDS011;1026;51.460;7.252;2023-05-07T05:27:49;4.20;;;3.90;;
2041;SDS011;1026;51.460;7.252;2023-05-07T05:30:15;4.37;;;3.80;;
2041;SDS011;1026;51.460;7.252;2023-05-07T05:32:41;3.87;;;3.57;;
2041;SDS011;1026;51.460;7.252;2023-05-07T05:35:06;3.50;;;3.20;;
2041;SDS011;1026;51.460;7.252;2023-05-07T05:37:32;4.83;;;4.33;;
2041;SDS011;1026;51.460;7.252;2023-05-07T05:39:58;3.70;;;3.40;;
2041;SDS011;1026;51.460;7.252;2023-05-07T05:42:24;3.63;;;3.33;;
2041;SDS011;1026;51.460;7.252;2023-05-07T05:44:49;3.73;;;3.40;;
2041;SDS011;1026;51.460;7.252;2023-05-07T05:47:15;3.90;;;3.60;;
2041;SDS011;1026;51.460;7.252;2023-05-07T05:49:41;9.93;;;7.97;;
2041;SDS011;1026;51.460;7.252;2023-05-07T06:01:59;2.90;;;2.70;;
2041;SDS011;1026;51.460;7.252;2023-05-07T06:04:25;2.90;;;2.70;;
2041;SDS011;1026;51.460;7.252;2023-05-07T06:06:51;4.57;;;4.17;;
2041;SDS011;1026;51.460;7.252;2023-05-07T06:09:16;3.30;;;3.10;;
2041;SDS011;1026;51.460;7.252;2023-05-07T06:11:42;2.90;;;2.70;;
2041;SDS011;1026;51.460;7.252;2023-05-07T06:14:07;3.70;;;3.40;;
2041;SDS011;1026;51.460;7.252;2023-05-07T06:16:33;2.57;;;2.37;;
2041;SDS011;1026;51.460;7.252;2023-05-07T06:18:59;3.07;;;2.87;;
2041;SDS011;1026;51.460;7.252;2023-05-07T06:21:24;2.73;;;2.53;;
2041;SDS011;1026;51.460;7.252;2023-05-07T06:23:50;4.80;;;4.40;;
2041;SDS011;1026;51.460;7.252;2023-05-07T06:26:17;2.73;;;2.53;;
2041;SDS011;1026;51.460;7.252;2023-05-07T06:28:42;2.60;;;2.40;;
2041;SDS011;1026;51.460;7.252;2023-05-07T06:31:12;2.73;;;2.20;;
2041;SDS011;1026;51.460;7.252;2023-05-07T06:33:40;3.40;;;3.20;;
2041;SDS011;1026;51.460;7.252;2023-05-07T06:36:07;2.70;;;2.50;;
2041;SDS011;1026;51.460;7.252;2023-05-07T06:38:32;4.47;;;3.20;;
2041;SDS011;1026;51.460;7.252;2023-05-07T06:40:58;3.87;;;3.57;;
2041;SDS011;1026;51.460;7.252;2023-05-07T06:43:24;2.50;;;2.30;;
2041;SDS011;1026;51.460;7.252;2023-05-07T06:45:49;2.57;;;2.37;;
2041;SDS011;1026;51.460;7.252;2023-05-07T06:48:15;2.73;;;2.43;;
2041;SDS011;1026;51.460;7.252;2023-05-07T06:50:41;2.73;;;2.53;;
2041;SDS011;1026;51.460;7.252;2023-05-07T06:53:07;2.60;;;2.40;;
2041;SDS011;1026;51.460;7.252;2023-05-07T06:55:32;3.03;;;2.83;;
2041;SDS011;1026;51.460;7.252;2023-05-07T06:57:58;3.67;;;3.40;;
2041;SDS011;1026;51.460;7.252;2023-05-07T07:00:26;2.77;;;2.50;;
2041;SDS011;1026;51.460;7.252;2023-05-07T07:02:52;2.70;;;2.40;;
2041;SDS011;1026;51.460;7.252;2023-05-07T07:05:19;3.13;;;2.93;;
2041;SDS011;1026;51.460;7.252;2023-05-07T07:07:45;3.30;;;3.00;;
2041;SDS011;1026;51.460;7.252;2023-05-07T07:10:17;2.70;;;2.50;;
2041;SDS011;1026;51.460;7.252;2023-05-07T07:12:44;2.50;;;2.40;;
2041;SDS011;1026;51.460;7.252;2023-05-07T07:15:10;2.47;;;2.27;;
2041;SDS011;1026;51.460;7.252;2023-05-07T07:17:36;2.67;;;2.47;;
2041;SDS011;1026;51.460;7.252;2023-05-07T07:20:02;2.50;;;2.30;;
2041;SDS011;1026;51.460;7.252;2023-05-07T07:22:28;3.80;;;2.37;;
2041;SDS011;1026;51.460;7.252;2023-05-07T07:24:54;2.20;;;2.00;;
2041;SDS011;1026;51.460;7.252;2023-05-07T07:27:19;2.70;;;2.50;;
2041;SDS011;1026;51.460;7.252;2023-05-07T07:29:45;3.70;;;2.83;;
2041;SDS011;1026;51.460;7.252;2023-05-07T07:32:11;2.90;;;2.47;;
2041;SDS011;1026;51.460;7.252;2023-05-07T07:34:36;2.67;;;2.47;;
2041;SDS011;1026;51.460;7.252;2023-05-07T07:37:02;2.77;;;2.57;;
2041;SDS011;1026;51.460;7.252;2023-05-07T07:39:31;2.30;;;2.10;;
2041;SDS011;1026;51.460;7.252;2023-05-07T07:41:57;2.83;;;2.60;;
2041;SDS011;1026;51.460;7.252;2023-05-07T07:44:23;2.90;;;2.67;;
2041;SDS011;1026;51.460;7.252;2023-05-07T07:46:48;2.70;;;2.50;;
2041;SDS011;1026;51.460;7.252;2023-05-07T07:49:15;3.03;;;2.50;;
2041;SDS011;1026;51.460;7.252;2023-05-07T07:51:41;2.77;;;2.57;;
2041;SDS011;1026;51.460;7.252;2023-05-07T07:54:07;5.70;;;2.70;;
2041;SDS011;1026;51.460;7.252;2023-05-07T07:56:32;2.10;;;2.00;;
2041;SDS011;1026;51.460;7.252;2023-05-07T07:58:59;2.50;;;2.30;;
2041;SDS011;1026;51.460;7.252;2023-05-07T08:01:25;4.00;;;2.77;;
2041;SDS011;1026;51.460;7.252;2023-05-07T08:03:51;4.60;;;2.73;;
2041;SDS011;1026;51.460;7.252;2023-05-07T08:06:16;2.27;;;2.10;;
2041;SDS011;1026;51.460;7.252;2023-05-07T08:08:42;2.90;;;2.70;;
2041;SDS011;1026;51.460;7.252;2023-05-07T08:11:08;4.20;;;2.50;;
2041;SDS011;1026;51.460;7.252;2023-05-07T08:13:34;2.30;;;2.10;;
2041;SDS011;1026;51.460;7.252;2023-05-07T08:16:00;3.17;;;2.87;;
2041;SDS011;1026;51.460;7.252;2023-05-07T08:18:26;6.13;;;3.53;;
2041;SDS011;1026;51.460;7.252;2023-05-07T08:20:54;4.87;;;3.37;;
2041;SDS011;1026;51.460;7.252;2023-05-07T08:23:20;4.30;;;3.90;;
2041;SDS011;1026;51.460;7.252;2023-05-07T08:25:46;2.47;;;2.30;;
2041;SDS011;1026;51.460;7.252;2023-05-07T08:28:13;3.37;;;2.97;;
2041;SDS011;1026;51.460;7.252;2023-05-07T08:30:38;3.10;;;2.90;;
2041;SDS011;1026;51.460;7.252;2023-05-07T08:33:04;4.27;;;3.97;;
2041;SDS011;1026;51.460;7.252;2023-05-07T08:35:30;5.27;;;4.80;;
2041;SDS011;1026;51.460;7.252;2023-05-07T08:37:56;3.90;;;3.60;;
2041;SDS011;1026;51.460;7.252;2023-05-07T08:40:24;4.40;;;4.00;;
2041;SDS011;1026;51.460;7.252;2023-05-07T08:42:52;3.30;;;3.00;;
2041;SDS011;1026;51.460;7.252;2023-05-07T08:45:18;3.90;;;3.50;;
2041;SDS011;1026;51.460;7.252;2023-05-07T08:47:47;5.40;;;5.00;;
2041;SDS011;1026;51.460;7.252;2023-05-07T08:50:17;3.17;;;2.80;;
2041;SDS011;1026;51.460;7.252;2023-05-07T08:52:44;6.13;;;3.90;;
2041;SDS011;1026;51.460;7.252;2023-05-07T08:55:10;5.30;;;4.60;;
2041;SDS011;1026;51.460;7.252;2023-05-07T08:57:37;5.50;;;5.10;;
2041;SDS011;1026;51.460;7.252;2023-05-07T09:00:04;3.53;;;2.77;;
2041;SDS011;1026;51.460;7.252;2023-05-07T09:02:32;4.80;;;4.37;;
2041;SDS011;1026;51.460;7.252;2023-05-07T09:05:00;3.10;;;2.90;;
2041;SDS011;1026;51.460;7.252;2023-05-07T09:07:25;5.20;;;4.70;;
2041;SDS011;1026;51.460;7.252;2023-05-07T09:09:51;4.20;;;3.87;;
2041;SDS011;1026;51.460;7.252;2023-05-07T09:12:20;3.83;;;3.53;;
2041;SDS011;1026;51.460;7.252;2023-05-07T09:14:46;4.50;;;4.10;;
2041;SDS011;1026;51.460;7.252;2023-05-07T09:17:12;4.30;;;3.90;;
2041;SDS011;1026;51.460;7.252;2023-05-07T09:19:38;3.90;;;3.60;;
2041;SDS011;1026;51.460;7.252;2023-05-07T09:22:05;3.60;;;3.40;;
2041;SDS011;1026;51.460;7.252;2023-05-07T09:24:51;5.57;;;4.73;;
2041;SDS011;1026;51.460;7.252;2023-05-07T09:27:27;4.73;;;4.33;;
2041;SDS011;1026;51.460;7.252;2023-05-07T09:29:53;6.57;;;5.00;;
2041;SDS011;1026;51.460;7.252;2023-05-07T09:32:18;2.37;;;2.17;;
2041;SDS011;1026;51.460;7.252;2023-05-07T09:34:45;5.87;;;5.30;;
2041;SDS011;1026;51.460;7.252;2023-05-07T09:37:12;9.03;;;6.70;;
2041;SDS011;1026;51.460;7.252;2023-05-07T09:39:42;11.50;;;6.40;;
2041;SDS011;1026;51.460;7.252;2023-05-07T09:42:09;4.10;;;3.80;;
2041;SDS011;1026;51.460;7.252;2023-05-07T09:44:43;8.30;;;6.07;;
2041;SDS011;1026;51.460;7.252;2023-05-07T09:47:10;8.00;;;7.20;;
2041;SDS011;1026;51.460;7.252;2023-05-07T09:49:43;7.70;;;6.80;;
2041;SDS011;1026;51.460;7.252;2023-05-07T09:52:13;7.83;;;7.20;;
2041;SDS011;1026;51.460;7.252;2023-05-07T09:54:39;4.77;;;3.97;;
2041;SDS011;1026;51.460;7.252;2023-05-07T09:57:08;3.57;;;3.27;;
2041;SDS011;1026;51.460;7.252;2023-05-07T09:59:36;8.47;;;7.57;;
2041;SDS011;1026;51.460;7.252;2023-05-07T10:02:03;10.03;;;7.00;;
2041;SDS011;1026;51.460;7.252;2023-05-07T10:04:30;4.93;;;4.00;;
2041;SDS011;1026;51.460;7.252;2023-05-07T10:06:56;7.00;;;5.13;;
2041;SDS011;1026;51.460;7.252;2023-05-07T10:09:23;7.57;;;6.87;;
2041;SDS011;1026;51.460;7.252;2023-05-07T10:11:54;7.00;;;6.40;;
2041;SDS011;1026;51.460;7.252;2023-05-07T10:14:27;3.97;;;3.63;;
2041;SDS011;1026;51.460;7.252;2023-05-07T10:16:53;4.93;;;4.63;;
2041;SDS011;1026;51.460;7.252;2023-05-07T10:19:20;6.23;;;5.73;;
2041;SDS011;1026;51.460;7.252;2023-05-07T10:21:50;5.63;;;5.13;;
2041;SDS011;1026;51.460;7.252;2023-05-07T10:24:24;4.30;;;4.00;;
2041;SDS011;1026;51.460;7.252;2023-05-07T10:26:52;3.83;;;3.53;;
2041;SDS011;1026;51.460;7.252;2023-05-07T10:34:35;5.67;;;5.10;;
2041;SDS011;1026;51.460;7.252;2023-05-07T10:37:04;3.93;;;3.53;;
2041;SDS011;1026;51.460;7.252;2023-05-07T10:39:31;4.60;;;4.20;;
2041;SDS011;1026;51.460;7.252;2023-05-07T10:41:56;4.57;;;4.17;;
2041;SDS011;1026;51.460;7.252;2023-05-07T10:44:32;2.93;;;2.73;;
2041;SDS011;1026;51.460;7.252;2023-05-07T10:47:06;4.00;;;3.60;;
2041;SDS011;1026;51.460;7.252;2023-05-07T10:49:34;3.23;;;2.93;;
2041;SDS011;1026;51.460;7.252;2023-05-07T10:54:47;3.37;;;2.70;;
2041;SDS011;1026;51.460;7.252;2023-05-07T10:57:34;3.90;;;2.90;;
2041;SDS011;1026;51.460;7.252;2023-05-07T11:00:02;3.80;;;3.33;;
2041;SDS011;1026;51.460;7.252;2023-05-07T11:05:25;4.20;;;3.90;;
2041;SDS011;1026;51.460;7.252;2023-05-07T11:07:55;3.07;;;2.83;;
2041;SDS011;1026;51.460;7.252;2023-05-07T11:10:23;4.17;;;3.87;;
2041;SDS011;1026;51.460;7.252;2023-05-07T11:13:08;4.43;;;4.07;;
2041;SDS011;1026;51.460;7.252;2023-05-07T11:15:35;12.43;;;4.70;;
2041;SDS011;1026;51.460;7.252;2023-05-07T11:18:02;5.33;;;4.93;;
2041;SDS011;1026;51.460;7.252;2023-05-07T11:26:12;5.30;;;4.90;;
2041;SDS011;1026;51.460;7.252;2023-05-07T11:28:40;6.13;;;5.63;;
2041;SDS011;1026;51.460;7.252;2023-05-07T11:31:07;6.00;;;5.43;;
2041;SDS011;1026;51.460;7.252;2023-05-07T11:33:33;6.90;;;5.73;;
2041;SDS011;1026;51.460;7.252;2023-05-07T11:36:00;5.70;;;5.20;;
2041;SDS011;1026;51.460;7.252;2023-05-07T11:38:28;5.17;;;4.70;;
2041;SDS011;1026;51.460;7.252;2023-05-07T11:40:57;4.33;;;4.03;;
2041;SDS011;1026;51.460;7.252;2023-05-07T11:43:27;6.00;;;5.47;;
2041;SDS011;1026;51.460;7.252;2023-05-07T11:45:53;10.87;;;7.57;;
2041;SDS011;1026;51.460;7.252;2023-05-07T11:48:19;6.13;;;5.60;;
2041;SDS011;1026;51.460;7.252;2023-05-07T11:50:59;4.07;;;3.63;;
2041;SDS011;1026;51.460;7.252;2023-05-07T11:53:28;17.90;;;8.17;;
2041;SDS011;1026;51.460;7.252;2023-05-07T11:56:05;8.73;;;7.23;;
2041;SDS011;1026;51.460;7.252;2023-05-07T11:58:32;3.20;;;3.00;;
2041;SDS011;1026;51.460;7.252;2023-05-07T12:00:58;4.57;;;4.17;;
2041;SDS011;1026;51.460;7.252;2023-05-07T12:03:23;4.10;;;3.77;;
2041;SDS011;1026;51.460;7.252;2023-05-07T12:05:49;6.40;;;5.80;;
2041;SDS011;1026;51.460;7.252;2023-05-07T12:08:18;7.57;;;6.90;;
2041;SDS011;1026;51.460;7.252;2023-05-07T12:10:44;7.37;;;5.50;;
2041;SDS011;1026;51.460;7.252;2023-05-07T12:13:14;8.00;;;6.43;;
2041;SDS011;1026;51.460;7.252;2023-05-07T12:18:35;5.53;;;4.60;;
2041;SDS011;1026;51.460;7.252;2023-05-07T12:21:02;3.57;;;3.27;;
2041;SDS011;1026;51.460;7.252;2023-05-07T12:23:29;7.30;;;6.70;;
2041;SDS011;1026;51.460;7.252;2023-05-07T12:25:55;5.73;;;5.13;;
2041;SDS011;1026;51.460;7.252;2023-05-07T12:28:21;7.33;;;6.53;;
2041;SDS011;1026;51.460;7.252;2023-05-07T12:30:47;8.60;;;7.70;;
2041;SDS011;1026;51.460;7.252;2023-05-07T12:33:17;4.13;;;3.83;;
2041;SDS011;1026;51.460;7.252;2023-05-07T12:35:47;8.67;;;7.87;;
2041;SDS011;1026;51.460;7.252;2023-05-07T12:38:13;7.13;;;6.43;;
2041;SDS011;1026;51.460;7.252;2023-05-07T12:40:43;8.53;;;7.67;;
2041;SDS011;1026;51.460;7.252;2023-05-07T12:45:53;8.47;;;7.60;;
2041;SDS011;1026;51.460;7.252;2023-05-07T12:48:20;6.50;;;5.90;;
2041;SDS011;1026;51.460;7.252;2023-05-07T12:50:50;3.80;;;3.50;;
2041;SDS011;1026;51.460;7.252;2023-05-07T12:53:16;5.23;;;4.83;;
2041;SDS011;1026;51.460;7.252;2023-05-07T12:55:45;7.27;;;6.60;;
2041;SDS011;1026;51.460;7.252;2023-05-07T12:58:20;4.10;;;3.70;;
2041;SDS011;1026;51.460;7.252;2023-05-07T13:00:52;6.97;;;6.37;;
2041;SDS011;1026;51.460;7.252;2023-05-07T13:03:22;4.53;;;4.13;;
2041;SDS011;1026;51.460;7.252;2023-05-07T13:05:51;5.80;;;5.30;;
2041;SDS011;1026;51.460;7.252;2023-05-07T13:11:02;7.90;;;5.90;;
2041;SDS011;1026;51.460;7.252;2023-05-07T13:13:30;5.13;;;4.53;;
2041;SDS011;1026;51.460;7.252;2023-05-07T13:15:57;4.40;;;4.00;;
2041;SDS011;1026;51.460;7.252;2023-05-07T13:18:24;5.53;;;4.90;;
2041;SDS011;1026;51.460;7.252;2023-05-07T13:20:50;5.93;;;5.43;;
2041;SDS011;1026;51.460;7.252;2023-05-07T13:23:17;8.53;;;6.47;;
2041;SDS011;1026;51.460;7.252;2023-05-07T13:25:42;5.13;;;4.67;;
2041;SDS011;1026;51.460;7.252;2023-05-07T13:28:08;5.53;;;5.13;;
2041;SDS011;1026;51.460;7.252;2023-05-07T13:30:34;3.57;;;3.30;;
2041;SDS011;1026;51.460;7.252;2023-05-07T13:33:00;3.50;;;3.20;;
2041;SDS011;1026;51.460;7.252;2023-05-07T13:35:26;4.50;;;3.33;;
2041;SDS011;1026;51.460;7.252;2023-05-07T13:37:51;3.37;;;3.17;;
2041;SDS011;1026;51.460;7.252;2023-05-07T13:40:17;4.53;;;4.13;;
2041;SDS011;1026;51.460;7.252;2023-05-07T13:42:44;4.43;;;4.03;;
2041;SDS011;1026;51.460;7.252;2023-05-07T13:45:10;3.37;;;3.07;;
2041;SDS011;1026;51.460;7.252;2023-05-07T13:47:39;5.83;;;3.93;;
2041;SDS011;1026;51.460;7.252;2023-05-07T13:50:05;3.50;;;3.20;;
2041;SDS011;1026;51.460;7.252;2023-05-07T13:52:32;4.83;;;4.43;;
2041;SDS011;1026;51.460;7.252;2023-05-07T13:54:58;4.57;;;4.17;;
2041;SDS011;1026;51.460;7.252;2023-05-07T13:57:24;4.67;;;4.30;;
2041;SDS011;1026;51.460;7.252;2023-05-07T13:59:49;3.27;;;3.07;;
2041;SDS011;1026;51.460;7.252;2023-05-07T14:02:15;2.77;;;2.57;;
2041;SDS011;1026;51.460;7.252;2023-05-07T14:04:50;3.07;;;2.87;;
2041;SDS011;1026;51.460;7.252;2023-05-07T14:07:15;4.50;;;4.10;;
2041;SDS011;1026;51.460;7.252;2023-05-07T14:09:41;4.10;;;3.73;;
2041;SDS011;1026;51.460;7.252;2023-05-07T14:12:10;4.60;;;4.20;;
2041;SDS011;1026;51.460;7.252;2023-05-07T14:14:35;2.77;;;2.57;;
2041;SDS011;1026;51.460;7.252;2023-05-07T14:17:01;4.80;;;4.40;;
2041;SDS011;1026;51.460;7.252;2023-05-07T14:19:27;4.60;;;4.20;;
2041;SDS011;1026;51.460;7.252;2023-05-07T14:21:52;5.23;;;4.73;;
2041;SDS011;1026;51.460;7.252;2023-05-07T14:24:18;5.37;;;4.87;;
2041;SDS011;1026;51.460;7.252;2023-05-07T14:26:44;4.67;;;4.27;;
2041;SDS011;1026;51.460;7.252;2023-05-07T14:29:10;2.77;;;2.57;;
2041;SDS011;1026;51.460;7.252;2023-05-07T14:31:35;2.63;;;2.43;;
2041;SDS011;1026;51.460;7.252;2023-05-07T14:34:01;4.90;;;4.43;;
2041;SDS011;1026;51.460;7.252;2023-05-07T14:36:27;4.73;;;4.33;;
2041;SDS011;1026;51.460;7.252;2023-05-07T14:38:55;5.53;;;5.13;;
2041;SDS011;1026;51.460;7.252;2023-05-07T14:41:21;3.63;;;3.10;;
2041;SDS011;1026;51.460;7.252;2023-05-07T14:43:47;3.00;;;2.77;;
2041;SDS011;1026;51.460;7.252;2023-05-07T14:46:18;4.20;;;3.90;;
2041;SDS011;1026;51.460;7.252;2023-05-07T14:48:45;4.10;;;3.80;;
2041;SDS011;1026;51.460;7.252;2023-05-07T14:51:13;6.10;;;5.60;;
2041;SDS011;1026;51.460;7.252;2023-05-07T14:53:40;5.10;;;4.70;;
2041;SDS011;1026;51.460;7.252;2023-05-07T14:56:06;7.23;;;6.53;;
2041;SDS011;1026;51.460;7.252;2023-05-07T14:58:32;3.20;;;3.00;;
2041;SDS011;1026;51.460;7.252;2023-05-07T15:00:58;7.67;;;7.07;;
2041;SDS011;1026;51.460;7.252;2023-05-07T15:03:25;4.10;;;3.70;;
2041;SDS011;1026;51.460;7.252;2023-05-07T15:05:53;2.43;;;2.30;;
2041;SDS011;1026;51.460;7.252;2023-05-07T15:08:19;8.00;;;7.30;;
2041;SDS011;1026;51.460;7.252;2023-05-07T15:10:45;3.70;;;3.40;;
2041;SDS011;1026;51.460;7.252;2023-05-07T15:13:11;5.43;;;4.93;;
2041;SDS011;1026;51.460;7.252;2023-05-07T15:15:38;7.27;;;6.53;;
2041;SDS011;1026;51.460;7.252;2023-05-07T15:18:04;3.63;;;3.33;;
2041;SDS011;1026;51.460;7.252;2023-05-07T15:20:30;4.60;;;3.40;;
2041;SDS011;1026;51.460;7.252;2023-05-07T15:22:56;4.73;;;4.33;;
2041;SDS011;1026;51.460;7.252;2023-05-07T15:25:22;7.07;;;6.47;;
2041;SDS011;1026;51.460;7.252;2023-05-07T15:27:48;4.30;;;4.00;;
2041;SDS011;1026;51.460;7.252;2023-05-07T15:30:13;5.87;;;5.37;;
2041;SDS011;1026;51.460;7.252;2023-05-07T15:32:40;4.43;;;4.00;;
2041;SDS011;1026;51.460;7.252;2023-05-07T15:35:06;3.83;;;3.53;;
2041;SDS011;1026;51.460;7.252;2023-05-07T15:37:32;3.00;;;2.80;;
2041;SDS011;1026;51.460;7.252;2023-05-07T15:39:58;3.97;;;3.50;;
2041;SDS011;1026;51.460;7.252;2023-05-07T15:42:24;2.93;;;2.73;;
2041;SDS011;1026;51.460;7.252;2023-05-07T15:44:50;4.60;;;4.30;;
2041;SDS011;1026;51.460;7.252;2023-05-07T15:47:15;3.43;;;3.23;;